Time;durP1;ratioP1;P1;durP2;ratioP2;P2;SDS_P1;SDS_P2;PMS_P1;PMS_P2;Temp;Humidity;BMP_temperature;BMP_pressure;BME280_temperature;BME280_humidity;BME280_pressure;Samples;Min_cycle;Max_cycle;Signal;HPM_P1;HPM_P2
2023/06/26 00:01:32;;;;;;;22.20;11.30;;;;;;;13.75;100.00;98907.52;136998;1275;22355;-81
2023/06/26 00:04:37;;;;;;;14.20;10.30;;;;;;;13.71;100.00;98905.94;137259;1274;22184;-80
2023/06/26 00:07:39;;;;;;;12.20;10.70;;;;;;;13.69;100.00;98900.88;137445;1275;22154;-81
2023/06/26 00:10:42;;;;;;;13.90;11.10;;;;;;;13.68;100.00;98907.16;137310;1275;22172;-80
2023/06/26 00:13:44;;;;;;;14.80;11.20;;;;;;;13.66;100.00;98904.54;137200;1275;22329;-81
2023/06/26 00:16:49;;;;;;;16.90;10.10;;;;;;;13.62;100.00;98906.29;137190;1275;22893;-82
2023/06/26 00:19:51;;;;;;;16.40;10.70;;;;;;;13.54;100.00;98903.84;137204;1275;22401;-81
2023/06/26 00:22:55;;;;;;;13.40;11.20;;;;;;;13.48;100.00;98901.38;137345;1275;22201;-82
2023/06/26 00:25:57;;;;;;;12.90;11.50;;;;;;;13.48;100.00;98902.60;137418;1275;22472;-81
2023/06/26 00:29:00;;;;;;;16.90;11.40;;;;;;;13.47;100.00;98904.00;137430;1274;22275;-81
2023/06/26 00:32:02;;;;;;;15.30;11.00;;;;;;;13.46;100.00;98902.77;137225;1275;22188;-81
2023/06/26 00:35:05;;;;;;;14.70;10.80;;;;;;;13.44;100.00;98904.52;137415;1275;22184;-81
2023/06/26 00:38:28;;;;;;;14.30;10.50;;;;;;;13.40;100.00;98900.15;132449;1304;544981;-81
2023/06/26 00:41:30;;;;;;;32.40;12.30;;;;;;;13.32;100.00;98898.91;135663;1287;22554;-80
2023/06/26 00:44:33;;;;;;;16.80;11.60;;;;;;;13.28;100.00;98898.73;136003;1287;22658;-81
2023/06/26 00:47:35;;;;;;;12.50;11.00;;;;;;;13.28;100.00;98899.78;135918;1287;22575;-81
2023/06/26 00:50:38;;;;;;;12.20;11.00;;;;;;;13.20;100.00;98898.02;133155;1284;3357011;-83
2023/06/26 00:53:40;;;;;;;14.00;11.00;;;;;;;13.14;100.00;98898.14;136011;1284;22556;-82
2023/06/26 00:56:43;;;;;;;115.50;17.90;;;;;;;13.14;100.00;98898.15;136188;1284;22356;-81
2023/06/26 00:59:45;;;;;;;67.00;15.10;;;;;;;13.15;100.00;98901.13;135785;1284;22159;-79
2023/06/26 01:02:47;;;;;;;17.00;11.20;;;;;;;13.21;100.00;98899.07;135856;1284;22550;-81
2023/06/26 01:05:51;;;;;;;13.40;10.70;;;;;;;13.16;100.00;98898.35;137157;1278;22277;-81
2023/06/26 01:08:53;;;;;;;14.70;9.70;;;;;;;13.11;100.00;98899.53;136516;1278;22199;-80
2023/06/26 01:11:56;;;;;;;16.20;11.20;;;;;;;13.07;100.00;98895.52;136480;1278;25242;-80
2023/06/26 01:14:58;;;;;;;17.70;10.20;;;;;;;13.05;100.00;98892.53;137055;1278;22056;-82
2023/06/26 01:18:03;;;;;;;13.10;10.30;;;;;;;13.01;100.00;98890.59;136654;1276;22578;-82
2023/06/26 01:21:06;;;;;;;19.90;11.20;;;;;;;12.95;100.00;98888.11;136738;1276;22194;-82
2023/06/26 01:24:09;;;;;;;30.60;11.80;;;;;;;12.87;100.00;98886.34;137171;1276;22567;-84
2023/06/26 01:27:11;;;;;;;11.90;10.60;;;;;;;12.83;100.00;98885.27;136795;1276;22554;-82
2023/06/26 01:30:14;;;;;;;10.70;9.60;;;;;;;12.83;100.00;98884.05;136575;1276;22468;-81
2023/06/26 01:33:17;;;;;;;11.40;10.00;;;;;;;12.83;100.00;98886.48;136847;1276;22554;-82
2023/06/26 01:36:20;;;;;;;14.20;9.50;;;;;;;12.79;100.00;98887.19;137080;1276;23256;-81
2023/06/26 01:39:23;;;;;;;12.10;10.10;;;;;;;12.76;100.00;98882.45;136642;1276;22360;-82
2023/06/26 01:42:28;;;;;;;14.70;10.50;;;;;;;12.75;100.00;98881.05;136680;1276;23114;-81
2023/06/26 01:45:32;;;;;;;17.90;10.90;;;;;;;12.74;100.00;98876.86;137352;1275;22602;-81
2023/06/26 01:48:37;;;;;;;11.80;10.60;;;;;;;12.70;100.00;98878.06;136664;1276;23013;-81
2023/06/26 01:51:39;;;;;;;16.00;10.60;;;;;;;12.65;100.00;98878.73;136591;1276;22501;-82
2023/06/26 01:54:42;;;;;;;20.70;10.90;;;;;;;12.61;100.00;98876.64;136909;1276;22540;-83
2023/06/26 01:57:45;;;;;;;18.40;11.30;;;;;;;12.59;100.00;98873.13;136906;1276;23117;-82
2023/06/26 02:00:49;;;;;;;15.20;11.80;;;;;;;12.57;100.00;98871.90;137266;1276;22811;-82
2023/06/26 02:03:52;;;;;;;24.50;11.80;;;;;;;12.52;100.00;98872.58;137295;1276;22253;-80
2023/06/26 02:06:55;;;;;;;24.10;12.10;;;;;;;12.48;100.00;98869.24;136994;1276;22236;-82
2023/06/26 02:09:58;;;;;;;18.60;11.30;;;;;;;12.47;100.00;98865.41;136792;1260;22409;-80
2023/06/26 02:13:00;;;;;;;10.90;9.90;;;;;;;12.48;100.00;98863.32;136612;1276;22554;-80
2023/06/26 02:16:03;;;;;;;10.80;9.70;;;;;;;12.45;100.00;98860.51;137183;1276;23184;-81
2023/06/26 02:19:05;;;;;;;14.50;10.30;;;;;;;12.44;100.00;98861.90;136701;1276;22377;-82
2023/06/26 02:22:08;;;;;;;12.00;9.40;;;;;;;12.38;100.00;98861.17;136517;1276;23269;-79
2023/06/26 02:25:12;;;;;;;23.10;11.00;;;;;;;12.33;100.00;98856.79;137067;1276;22550;-80
2023/06/26 02:28:14;;;;;;;23.60;10.60;;;;;;;12.33;100.00;98855.21;137172;1273;22416;-81
2023/06/26 02:31:17;;;;;;;13.50;10.30;;;;;;;12.30;100.00;98859.39;136943;1273;22528;-81
2023/06/26 02:34:19;;;;;;;12.00;10.00;;;;;;;12.28;100.00;98854.84;137045;1273;25316;-85
2023/06/26 02:37:22;;;;;;;14.40;9.90;;;;;;;12.25;100.00;98856.21;137274;1273;22182;-83
2023/06/26 02:40:24;;;;;;;13.10;10.00;;;;;;;12.67;100.00;98859.54;137534;1273;22209;-83
2023/06/26 02:43:27;;;;;;;11.20;10.10;;;;;;;14.11;100.00;98856.41;137381;1273;22543;-83
2023/06/26 02:46:29;;;;;;;20.90;9.90;;;;;;;15.31;100.00;98855.42;137295;1273;22586;-83
2023/06/26 02:49:32;;;;;;;10.50;9.50;;;;;;;16.11;100.00;98854.08;137336;1273;22364;-84
2023/06/26 02:52:35;;;;;;;11.20;8.50;;;;;;;16.61;100.00;98855.34;137642;1273;22638;-81
2023/06/26 02:55:37;;;;;;;9.00;8.10;;;;;;;15.98;100.00;98859.30;137672;1273;22163;-82
2023/06/26 02:58:40;;;;;;;10.00;8.90;;;;;;;15.16;100.00;98861.48;137677;1273;22462;-81
2023/06/26 03:01:42;;;;;;;12.80;8.80;;;;;;;14.58;100.00;98865.08;137119;1273;22531;-81
2023/06/26 03:04:44;;;;;;;10.80;9.30;;;;;;;14.15;100.00;98860.79;137266;1273;22218;-82
2023/06/26 03:07:47;;;;;;;10.00;9.00;;;;;;;13.82;100.00;98863.46;137351;1273;22326;-82
2023/06/26 03:10:49;;;;;;;155.00;18.90;;;;;;;13.59;100.00;98865.55;137417;1273;22222;-83
2023/06/26 03:13:52;;;;;;;11.90;10.60;;;;;;;13.45;100.00;98863.98;137548;1269;22381;-82
2023/06/26 03:16:57;;;;;;;11.70;9.80;;;;;;;13.35;100.00;98861.52;137511;1273;22251;-81
2023/06/26 03:20:00;;;;;;;11.30;10.10;;;;;;;13.26;100.00;98862.55;137461;1273;22139;-81
2023/06/26 03:23:02;;;;;;;12.50;9.80;;;;;;;13.21;100.00;98866.05;137441;1273;22210;-81
2023/06/26 03:26:05;;;;;;;21.40;10.90;;;;;;;13.22;100.00;98862.20;137243;1273;22553;-81
2023/06/26 03:29:07;;;;;;;11.80;10.10;;;;;;;13.31;100.00;98864.66;137426;1273;22190;-81
2023/06/26 03:32:10;;;;;;;13.50;10.10;;;;;;;13.35;100.00;98859.77;137424;1273;22384;-81
2023/06/26 03:35:12;;;;;;;10.80;9.50;;;;;;;13.37;100.00;98862.91;137387;1273;23126;-82
2023/06/26 03:38:15;;;;;;;13.60;9.10;;;;;;;13.41;100.00;98863.98;137296;1273;22532;-80
2023/06/26 03:41:17;;;;;;;18.20;8.80;;;;;;;13.43;100.00;98864.33;137396;1273;22258;-81
2023/06/26 03:44:20;;;;;;;11.30;8.30;;;;;;;13.41;100.00;98863.27;137415;1273;22255;-81
2023/06/26 03:47:22;;;;;;;18.50;10.00;;;;;;;13.43;100.00;98867.29;137415;1269;22201;-81
2023/06/26 03:50:25;;;;;;;17.30;11.10;;;;;;;13.50;100.00;98867.65;137399;1273;22630;-80
2023/06/26 03:53:28;;;;;;;17.80;10.80;;;;;;;13.57;100.00;98866.60;137404;1273;22227;-81
2023/06/26 03:56:31;;;;;;;12.10;10.20;;;;;;;13.70;100.00;98866.95;137396;1273;22340;-81
2023/06/26 03:59:33;;;;;;;19.90;11.70;;;;;;;13.81;100.00;98866.94;137432;1257;22301;-80
2023/06/26 04:02:36;;;;;;;134.80;17.70;;;;;;;13.99;100.00;98869.94;137455;1273;22346;-81
2023/06/26 04:05:38;;;;;;;18.50;12.50;;;;;;;14.19;100.00;98864.98;137460;1273;22413;-81
2023/06/26 04:08:41;;;;;;;22.40;12.40;;;;;;;14.39;100.00;98866.52;137416;1273;23250;-80
2023/06/26 04:11:43;;;;;;;40.80;12.30;;;;;;;14.60;100.00;98866.30;137473;1273;22227;-83
2023/06/26 04:14:46;;;;;;;32.30;13.40;;;;;;;14.88;100.00;98866.38;137349;1273;22362;-80
2023/06/26 04:17:48;;;;;;;34.40;12.50;;;;;;;15.21;100.00;98867.40;137430;1273;22688;-79
2023/06/26 04:20:51;;;;;;;32.70;13.70;;;;;;;15.54;100.00;98866.84;137438;1273;22694;-80
2023/06/26 04:23:54;;;;;;;16.60;12.80;;;;;;;15.90;100.00;98869.39;137430;1273;22254;-79
2023/06/26 04:26:57;;;;;;;16.90;13.00;;;;;;;16.25;100.00;98863.42;137422;1273;22394;-80
2023/06/26 04:29:59;;;;;;;20.70;12.50;;;;;;;16.58;100.00;98865.18;137479;1273;22677;-82
2023/06/26 04:33:02;;;;;;;16.30;12.50;;;;;;;16.88;100.00;98862.73;137472;1273;22321;-80
2023/06/26 04:36:05;;;;;;;32.20;13.40;;;;;;;17.21;100.00;98862.63;137389;1273;22366;-81
2023/06/26 04:39:07;;;;;;;14.00;11.90;;;;;;;17.48;100.00;98860.48;137404;1273;22996;-79
2023/06/26 04:42:11;;;;;;;20.90;12.00;;;;;;;17.70;100.00;98861.40;137468;1273;22848;-79
2023/06/26 04:45:14;;;;;;;88.70;16.90;;;;;;;18.38;100.00;98858.77;137268;1273;22225;-82
2023/06/26 04:48:17;;;;;;;18.00;12.60;;;;;;;19.32;100.00;98854.90;137447;1269;22277;-84
2023/06/26 04:51:20;;;;;;;112.30;16.20;;;;;;;19.86;100.00;98854.17;137420;1273;22201;-82
2023/06/26 04:54:23;;;;;;;22.60;11.50;;;;;;;20.29;100.00;98853.92;137484;1273;22221;-82
2023/06/26 04:57:25;;;;;;;15.90;11.40;;;;;;;20.83;100.00;98855.27;137426;1273;24178;-81
2023/06/26 05:00:28;;;;;;;16.40;13.40;;;;;;;21.31;100.00;98852.61;137492;1273;22289;-83
2023/06/26 05:03:31;;;;;;;12.30;10.60;;;;;;;21.45;100.00;98850.93;137496;1273;22641;-82
2023/06/26 05:06:33;;;;;;;18.60;11.90;;;;;;;21.42;100.00;98850.14;137148;1273;22239;-84
2023/06/26 05:09:36;;;;;;;14.60;11.70;;;;;;;21.84;100.00;98849.67;137194;1273;22246;-81
2023/06/26 05:12:38;;;;;;;13.60;10.60;;;;;;;21.99;100.00;98849.16;137391;1273;22812;-84
2023/06/26 05:15:41;;;;;;;13.00;10.30;;;;;;;21.75;100.00;98854.39;137390;1273;22134;-85
2023/06/26 05:18:44;;;;;;;16.70;11.40;;;;;;;21.40;100.00;98860.48;137388;1273;22868;-85
2023/06/26 05:21:46;;;;;;;27.50;13.20;;;;;;;21.37;100.00;98857.73;137174;1273;25466;-85
2023/06/26 05:24:49;;;;;;;13.50;11.00;;;;;;;21.78;100.00;98861.73;137330;1273;22205;-85
2023/06/26 05:27:52;;;;;;;18.30;10.10;;;;;;;21.62;100.00;98860.64;137473;1273;22256;-83
2023/06/26 05:30:54;;;;;;;18.20;11.80;;;;;;;21.51;100.00;98864.20;137261;1273;22222;-84
2023/06/26 05:33:57;;;;;;;11.50;10.30;;;;;;;21.12;100.00;98859.91;137308;1273;22619;-85
2023/06/26 05:37:01;;;;;;;10.80;9.70;;;;;;;20.85;100.00;98862.66;137571;1273;22228;-82
2023/06/26 05:40:05;;;;;;;14.00;9.80;;;;;;;21.10;100.00;98863.86;137195;1273;22185;-84
2023/06/26 05:43:10;;;;;;;14.40;10.20;;;;;;;21.12;100.00;98866.10;137524;1273;22227;-84
2023/06/26 05:46:14;;;;;;;11.20;9.80;;;;;;;21.28;100.00;98866.34;137550;1273;22382;-84
2023/06/26 05:49:17;;;;;;;;;;;;;;;21.46;100.00;98861.16;137482;1273;22926;-84
2023/06/26 05:52:21;;;;;;;11.10;9.00;;;;;;;21.64;100.00;98861.15;137485;1273;22284;-85
2023/06/26 05:55:25;;;;;;;10.50;9.40;;;;;;;21.88;100.00;98858.24;137411;1273;22702;-81
2023/06/26 05:58:28;;;;;;;9.30;8.30;;;;;;;22.24;100.00;98851.00;137390;1273;22215;-85
2023/06/26 06:01:30;;;;;;;11.00;8.50;;;;;;;22.31;100.00;98850.58;137392;1273;22740;-83
2023/06/26 06:04:34;;;;;;;14.70;8.10;;;;;;;22.38;100.00;98853.52;137470;1273;22334;-82
2023/06/26 06:07:38;;;;;;;10.90;8.30;;;;;;;22.41;100.00;98859.26;137443;1273;22261;-82
2023/06/26 06:10:49;;;;;;;12.90;9.60;;;;;;;22.43;100.00;98856.70;137512;1273;22715;-81
2023/06/26 06:13:55;;;;;;;12.00;8.60;;;;;;;22.54;100.00;98852.92;137301;1273;22190;-85
2023/06/26 06:16:58;;;;;;;103.70;13.90;;;;;;;22.64;100.00;98851.19;136399;1273;25323;-81
2023/06/26 06:20:01;;;;;;;12.10;8.70;;;;;;;22.81;100.00;98855.52;137218;1273;22041;-83
2023/06/26 06:23:04;;;;;;;10.30;9.00;;;;;;;22.89;78.00;98854.02;137508;1273;22295;-81
2023/06/26 06:26:07;;;;;;;14.50;9.50;;;;;;;22.94;63.34;98852.57;137416;1273;22385;-80
2023/06/26 06:29:10;;;;;;;13.60;9.60;;;;;;;23.10;63.26;98851.05;137448;1273;22441;-82
2023/06/26 06:32:15;;;;;;;12.80;9.40;;;;;;;23.24;62.43;98848.74;137390;1273;22558;-81
2023/06/26 06:35:18;;;;;;;14.00;8.60;;;;;;;23.43;62.38;98846.56;137432;1273;22469;-83
2023/06/26 06:38:21;;;;;;;11.70;8.10;;;;;;;23.67;61.98;98847.95;137517;1273;22278;-84
2023/06/26 06:41:24;;;;;;;11.00;8.80;;;;;;;23.85;61.37;98848.42;137427;1273;22248;-83
2023/06/26 06:44:26;;;;;;;8.20;7.00;;;;;;;24.04;61.15;98848.52;137519;1273;22233;-83
2023/06/26 06:47:29;;;;;;;8.90;7.60;;;;;;;24.13;59.80;98846.53;137492;1273;22455;-84
2023/06/26 06:50:34;;;;;;;11.50;7.90;;;;;;;24.26;59.62;98848.65;137203;1273;22182;-83
2023/06/26 06:53:51;;;;;;;8.40;7.60;;;;;;;24.49;59.07;98848.38;137280;1273;22708;-84
2023/06/26 06:56:53;;;;;;;8.80;7.50;;;;;;;24.64;57.42;98848.24;137376;1273;22308;-83
2023/06/26 06:59:56;;;;;;;8.70;6.90;;;;;;;24.80;57.46;98843.77;137473;1273;22364;-85
2023/06/26 07:03:00;;;;;;;7.00;6.30;;;;;;;24.95;55.97;98846.10;137449;1273;22232;-84
2023/06/26 07:06:03;;;;;;;30.00;10.60;;;;;;;24.95;54.67;98848.58;137419;1273;22234;-85
2023/06/26 07:09:06;;;;;;;8.00;6.10;;;;;;;25.02;55.03;98846.36;137312;1273;22506;-83
2023/06/26 07:12:09;;;;;;;;;;;;;;;25.30;54.75;98844.15;137509;1273;22284;-83
2023/06/26 07:15:11;;;;;;;10.00;6.00;;;;;;;25.54;54.19;98840.33;137470;1273;22563;-81
2023/06/26 07:18:14;;;;;;;173.90;18.50;;;;;;;25.77;52.78;98845.27;137316;1273;22369;-82
2023/06/26 07:21:16;;;;;;;8.70;6.10;;;;;;;25.78;51.84;98847.38;137572;1273;22203;-84
2023/06/26 07:24:19;;;;;;;6.40;5.80;;;;;;;25.79;51.53;98846.58;137524;1273;22899;-83
2023/06/26 07:27:24;;;;;;;11.80;5.90;;;;;;;26.05;52.39;98842.82;137545;1273;22333;-87
2023/06/26 07:30:26;;;;;;;6.00;5.40;;;;;;;26.23;51.29;98842.77;137527;1273;22193;-85
2023/06/26 07:33:29;;;;;;;10.70;6.10;;;;;;;26.30;50.17;98846.50;137470;1262;22214;-84
2023/06/26 07:36:31;;;;;;;6.90;5.70;;;;;;;26.31;49.06;98845.40;137385;1273;21962;-83
2023/06/26 07:39:34;;;;;;;12.30;6.50;;;;;;;26.39;49.04;98841.05;137472;1273;22247;-84
2023/06/26 07:42:36;;;;;;;6.20;5.60;;;;;;;26.50;48.72;98838.88;137415;1273;22414;-84
2023/06/26 07:45:39;;;;;;;84.70;10.80;;;;;;;26.59;49.18;98838.55;137457;1273;22404;-84
2023/06/26 07:48:41;;;;;;;9.80;5.40;;;;;;;26.88;48.60;98832.20;137475;1273;22619;-84
2023/06/26 07:51:44;;;;;;;5.90;5.30;;;;;;;27.08;47.70;98831.52;137442;1273;22200;-86
2023/06/26 07:54:47;;;;;;;6.90;5.70;;;;;;;27.05;46.16;98831.46;137461;1273;22703;-82
2023/06/26 07:57:51;;;;;;;5.90;5.30;;;;;;;27.02;46.84;98830.41;137468;1273;22293;-83
2023/06/26 08:00:54;;;;;;;9.60;5.60;;;;;;;27.11;46.54;98833.27;137467;1273;22266;-84
2023/06/26 08:03:57;;;;;;;5.60;5.00;;;;;;;27.33;46.28;98827.77;137437;1273;22301;-83
2023/06/26 08:07:01;;;;;;;6.20;5.20;;;;;;;27.45;45.64;98827.98;137482;1273;22314;-83
2023/06/26 08:10:04;;;;;;;5.90;5.20;;;;;;;27.63;45.32;98827.17;137475;1273;22173;-82
2023/06/26 08:13:06;;;;;;;7.80;5.40;;;;;;;27.70;44.64;98824.25;137435;1273;22278;-83
2023/06/26 08:16:09;;;;;;;6.10;5.60;;;;;;;27.55;44.04;98828.62;137435;1273;22203;-82
2023/06/26 08:19:11;;;;;;;6.10;5.20;;;;;;;27.44;43.42;98828.22;137446;1273;22208;-86
2023/06/26 08:22:14;;;;;;;7.00;4.90;;;;;;;27.36;43.86;98817.42;137422;1273;22821;-85
2023/06/26 08:25:16;;;;;;;7.30;6.00;;;;;;;27.25;43.89;98820.69;137429;1273;22187;-85
2023/06/26 08:28:19;;;;;;;5.90;5.30;;;;;;;27.44;43.36;98819.98;137462;1273;22659;-85
2023/06/26 08:31:21;;;;;;;6.30;5.40;;;;;;;27.62;43.38;98817.90;137494;1273;22200;-85
2023/06/26 08:34:24;;;;;;;6.50;5.00;;;;;;;27.88;43.43;98818.75;137470;1273;22330;-84
2023/06/26 08:37:26;;;;;;;9.80;5.80;;;;;;;27.96;43.22;98821.83;137469;1273;22500;-85
2023/06/26 08:40:29;;;;;;;6.40;5.60;;;;;;;28.15;42.83;98823.70;137459;1265;22165;-85
2023/06/26 08:43:32;;;;;;;7.70;5.40;;;;;;;28.48;42.32;98821.93;137410;1273;22247;-84
2023/06/26 08:46:34;;;;;;;5.50;5.00;;;;;;;28.60;41.36;98822.45;137500;1273;22546;-84
2023/06/26 08:49:37;;;;;;;7.40;5.70;;;;;;;28.26;41.51;98818.08;137472;1273;23041;-83
2023/06/26 08:52:40;;;;;;;5.80;5.30;;;;;;;27.93;42.33;98815.19;137293;1273;23020;-86
2023/06/26 08:55:46;;;;;;;6.10;5.50;;;;;;;27.72;42.59;98811.61;137173;1273;22291;-87
2023/06/26 08:58:53;;;;;;;6.40;5.40;;;;;;;27.87;41.93;98811.13;137309;1273;22241;-85
2023/06/26 09:02:00;;;;;;;6.50;5.90;;;;;;;27.96;42.78;98809.48;137204;1273;22258;-86
2023/06/26 09:05:02;;;;;;;6.40;5.60;;;;;;;28.13;42.68;98811.34;137430;1273;22114;-89
2023/06/26 09:08:05;;;;;;;6.70;5.60;;;;;;;28.04;42.97;98812.78;137303;1273;22525;-87
2023/06/26 09:11:08;;;;;;;10.70;6.30;;;;;;;28.42;42.88;98811.16;137433;1273;22987;-85
2023/06/26 09:14:11;;;;;;;6.90;6.00;;;;;;;28.77;40.31;98816.92;137448;1273;22223;-85
2023/06/26 09:17:18;;;;;;;6.70;6.00;;;;;;;28.72;39.80;98811.17;137427;1273;22276;-87
2023/06/26 09:20:20;;;;;;;6.80;5.80;;;;;;;28.89;39.44;98806.68;137366;1273;22218;-84
2023/06/26 09:23:23;;;;;;;169.60;102.00;;;;;;;29.15;38.42;98803.08;137433;1273;23037;-86
2023/06/26 09:26:26;;;;;;;15.40;6.40;;;;;;;29.29;38.95;98796.77;137383;1273;22175;-86
2023/06/26 09:29:29;;;;;;;5.90;5.40;;;;;;;29.55;37.89;98800.67;137495;1273;22248;-84
2023/06/26 09:32:31;;;;;;;7.30;5.70;;;;;;;28.90;38.23;98794.59;137511;1273;22687;-86
2023/06/26 09:35:34;;;;;;;7.20;5.80;;;;;;;28.31;39.95;98794.34;137237;1273;22948;-83
2023/06/26 09:38:37;;;;;;;8.30;6.30;;;;;;;27.85;40.49;98789.42;137449;1273;22910;-84
2023/06/26 09:45:18;;;;;;;6.90;6.10;;;;;;;28.71;40.07;98790.81;137281;1273;22696;-87
2023/06/26 09:48:26;;;;;;;6.80;6.10;;;;;;;28.72;37.59;98792.33;137056;1273;22673;-85
2023/06/26 09:54:52;;;;;;;18.10;14.10;;;;;;;29.04;37.67;98793.89;137425;1273;22757;-85
2023/06/26 09:57:55;;;;;;;;;;;;;;;29.13;38.01;98791.89;137362;1273;22490;-84
2023/06/26 10:01:00;;;;;;;9.60;5.60;;;;;;;29.53;37.51;98792.52;137506;1265;22255;-84
2023/06/26 10:04:03;;;;;;;397.70;33.70;;;;;;;29.80;35.36;98783.73;137453;1273;22410;-83
2023/06/26 10:07:06;;;;;;;7.20;4.90;;;;;;;30.02;35.13;98780.63;137465;1273;22224;-85
2023/06/26 10:10:09;;;;;;;;;;;;;;;30.27;34.13;98777.83;137346;1273;25265;-86
2023/06/26 10:13:14;;;;;;;17.90;5.80;;;;;;;30.51;34.04;98773.72;137355;1273;22344;-84
2023/06/26 10:16:17;;;;;;;8.00;4.70;;;;;;;30.69;33.66;98768.62;137519;1273;22452;-82
2023/06/26 10:19:24;;;;;;;5.60;5.10;;;;;;;30.18;34.02;98772.38;137465;1273;22212;-84
2023/06/26 10:22:26;;;;;;;6.80;5.80;;;;;;;29.24;34.52;98770.20;137432;1273;22239;-85
2023/06/26 10:25:29;;;;;;;7.50;5.00;;;;;;;28.51;36.45;98770.72;137554;1273;22191;-82
2023/06/26 10:28:32;;;;;;;7.40;5.60;;;;;;;28.12;36.74;98768.63;137288;1273;22214;-84
2023/06/26 10:31:37;;;;;;;6.00;5.40;;;;;;;27.72;37.88;98763.66;137490;1273;22259;-84
2023/06/26 10:34:40;;;;;;;5.90;5.30;;;;;;;27.43;38.46;98765.20;137484;1273;22291;-82
2023/06/26 10:37:44;;;;;;;9.60;6.70;;;;;;;27.25;38.75;98764.23;137514;1273;22219;-85
2023/06/26 10:40:46;;;;;;;6.60;6.00;;;;;;;27.42;39.71;98757.38;137357;1273;22593;-82
2023/06/26 10:43:49;;;;;;;6.00;5.40;;;;;;;27.64;40.13;98757.55;137452;1273;22918;-82
2023/06/26 10:46:54;;;;;;;5.30;4.80;;;;;;;28.24;39.26;98751.59;137344;1273;22251;-86
2023/06/26 10:49:57;;;;;;;6.00;5.30;;;;;;;28.79;37.98;98747.49;137475;1273;22218;-85
2023/06/26 10:53:00;;;;;;;10.20;4.70;;;;;;;29.32;36.05;98746.58;137469;1273;22605;-86
2023/06/26 10:56:03;;;;;;;5.40;4.90;;;;;;;29.71;35.45;98739.89;137492;1273;22095;-83
2023/06/26 10:59:05;;;;;;;91.10;11.30;;;;;;;30.08;33.77;98740.37;137490;1273;22259;-84
2023/06/26 11:02:08;;;;;;;5.90;4.80;;;;;;;30.24;33.33;98730.86;137485;1273;22197;-83
2023/06/26 11:05:11;;;;;;;4.80;4.40;;;;;;;30.28;33.38;98731.05;137509;1273;22216;-84
2023/06/26 11:08:19;;;;;;;5.50;4.90;;;;;;;30.39;33.10;98734.84;137456;1273;22225;-82
2023/06/26 11:11:21;;;;;;;6.00;5.40;;;;;;;29.74;33.48;98738.77;137477;1273;22240;-84
2023/06/26 11:14:24;;;;;;;7.20;5.70;;;;;;;28.94;34.91;98741.86;137450;1273;22276;-82
2023/06/26 11:17:27;;;;;;;5.50;5.00;;;;;;;28.26;36.02;98740.41;137501;1273;22287;-81
2023/06/26 11:20:29;;;;;;;6.20;5.20;;;;;;;27.82;37.24;98737.39;137434;1273;22247;-84
2023/06/26 11:23:32;;;;;;;7.50;5.60;;;;;;;27.46;37.91;98739.27;137481;1273;22828;-78
2023/06/26 11:26:34;;;;;;;5.70;4.90;;;;;;;27.34;38.70;98737.14;137416;1273;22324;-82
2023/06/26 11:29:37;;;;;;;5.50;5.00;;;;;;;27.47;38.28;98737.95;137451;1250;22355;-84
2023/06/26 11:32:40;;;;;;;5.90;5.40;;;;;;;27.85;37.14;98732.86;137449;1268;22253;-83
2023/06/26 11:35:42;;;;;;;8.40;6.10;;;;;;;28.32;36.30;98732.20;137446;1273;22495;-83
2023/06/26 11:38:45;;;;;;;6.20;5.20;;;;;;;28.79;35.84;98728.37;137396;1273;22648;-81
2023/06/26 11:41:47;;;;;;;6.90;5.30;;;;;;;29.25;34.48;98722.65;137498;1273;22377;-82
2023/06/26 11:44:50;;;;;;;43.50;7.50;;;;;;;29.50;34.35;98719.39;137395;1273;22488;-82
2023/06/26 11:47:53;;;;;;;5.70;4.60;;;;;;;29.65;34.24;98722.52;137444;1273;22308;-83
2023/06/26 11:51:02;;;;;;;7.00;5.00;;;;;;;29.89;33.65;98714.95;137453;1273;22235;-82
2023/06/26 11:54:13;;;;;;;15.30;5.20;;;;;;;30.01;32.81;98716.11;137466;1273;22628;-85
2023/06/26 11:57:17;;;;;;;5.70;5.00;;;;;;;30.10;32.85;98717.13;137367;1270;22653;-84
2023/06/26 12:00:19;;;;;;;4.70;3.90;;;;;;;30.04;31.36;98716.98;137460;1273;22225;-82
2023/06/26 12:03:22;;;;;;;5.00;4.30;;;;;;;29.93;30.19;98718.64;137465;1273;22053;-82
2023/06/26 12:06:25;;;;;;;4.60;4.20;;;;;;;29.81;29.62;98712.45;137411;1273;22135;-83
2023/06/26 12:09:30;;;;;;;3.70;3.50;;;;;;;29.87;30.69;98707.38;137342;1273;22228;-82
2023/06/26 12:12:36;;;;;;;4.90;4.30;;;;;;;29.99;30.40;98702.05;137315;1273;22548;-84
2023/06/26 12:15:41;;;;;;;4.80;4.20;;;;;;;29.96;30.54;98708.56;137431;1273;22665;-84
2023/06/26 12:18:44;;;;;;;4.80;4.50;;;;;;;29.97;31.47;98705.66;137430;1273;22564;-82
2023/06/26 12:21:55;;;;;;;4.50;4.00;;;;;;;30.09;30.90;98701.96;137408;1273;22261;-83
2023/06/26 12:25:06;;;;;;;6.00;4.50;;;;;;;30.19;31.41;98699.46;137366;1273;23078;-83
2023/06/26 12:28:12;;;;;;;7.00;5.00;;;;;;;30.29;31.54;98697.83;137428;1273;22210;-84
2023/06/26 12:31:15;;;;;;;5.20;4.70;;;;;;;30.40;31.58;98698.48;137405;1273;22204;-84
2023/06/26 12:34:20;;;;;;;4.70;4.30;;;;;;;30.23;30.57;98696.43;137427;1273;22827;-86
2023/06/26 12:37:23;;;;;;;5.00;4.50;;;;;;;29.93;31.57;98693.20;137442;1273;22738;-83
2023/06/26 12:40:28;;;;;;;;;;;;;;;29.96;31.00;98689.22;137441;1273;22701;-85
2023/06/26 12:43:39;;;;;;;9.20;4.90;;;;;;;29.98;31.52;98684.58;137477;1273;22187;-83
2023/06/26 12:46:44;;;;;;;4.70;4.30;;;;;;;30.23;31.15;98684.81;137493;1273;22221;-84
2023/06/26 12:49:48;;;;;;;4.70;4.30;;;;;;;30.41;29.94;98679.98;136979;1273;22579;-84
2023/06/26 12:52:51;;;;;;;6.10;4.60;;;;;;;30.53;29.61;98674.79;136973;1273;343795;-85
2023/06/26 12:55:54;;;;;;;4.30;4.00;;;;;;;30.48;29.75;98669.02;137417;1273;22257;-84
2023/06/26 12:58:56;;;;;;;4.90;4.50;;;;;;;30.49;30.18;98664.65;137423;1273;22219;-84
2023/06/26 13:01:59;;;;;;;5.20;4.60;;;;;;;30.57;30.38;98663.20;137529;1273;22216;-84
2023/06/26 13:05:02;;;;;;;5.20;4.60;;;;;;;30.65;29.95;98658.11;137532;1273;22199;-84
2023/06/26 13:08:05;;;;;;;;;;;;;;;30.58;29.71;98656.50;137521;1273;22405;-84
2023/06/26 13:11:08;;;;;;;6.20;4.80;;;;;;;30.51;30.24;98653.55;137343;1273;22519;-83
2023/06/26 13:14:11;;;;;;;4.70;4.30;;;;;;;30.77;30.02;98649.33;137462;1273;22200;-83
2023/06/26 13:17:14;;;;;;;7.00;4.60;;;;;;;30.58;29.47;98647.85;137505;1273;22272;-85
2023/06/26 13:20:16;;;;;;;4.80;4.40;;;;;;;30.42;29.49;98644.70;137558;1268;22392;-80
2023/06/26 13:23:19;;;;;;;4.50;4.10;;;;;;;30.42;29.29;98639.45;137537;1273;22203;-81
2023/06/26 13:26:25;;;;;;;4.50;4.10;;;;;;;30.59;29.84;98636.26;137590;1273;22488;-83
2023/06/26 13:29:35;;;;;;;4.30;3.90;;;;;;;30.76;30.01;98635.02;137544;1273;22702;-83
2023/06/26 13:32:38;;;;;;;;;;;;;;;30.70;29.67;98637.08;137575;1273;22324;-84
2023/06/26 13:35:40;;;;;;;10.30;5.00;;;;;;;30.59;30.10;98631.23;137498;1273;22472;-84
2023/06/26 13:38:43;;;;;;;5.10;4.60;;;;;;;30.83;30.01;98636.61;137478;1273;22199;-86
2023/06/26 13:41:45;;;;;;;4.60;4.20;;;;;;;30.94;29.05;98632.41;137480;1273;22253;-86
2023/06/26 13:44:49;;;;;;;8.90;4.80;;;;;;;31.11;29.23;98631.68;137548;1273;22285;-84
2023/06/26 13:47:52;;;;;;;8.00;4.50;;;;;;;31.30;29.61;98630.50;137551;1273;22234;-85
2023/06/26 13:50:54;;;;;;;5.00;4.60;;;;;;;31.48;29.29;98625.64;137521;1254;22435;-84
2023/06/26 13:54:00;;;;;;;4.50;4.10;;;;;;;31.33;29.47;98622.51;137518;1273;22296;-81
2023/06/26 13:57:02;;;;;;;5.50;4.70;;;;;;;31.27;29.19;98620.84;137490;1273;22394;-82
2023/06/26 14:00:05;;;;;;;4.40;4.00;;;;;;;31.52;29.78;98617.06;137529;1273;23069;-81
2023/06/26 14:03:08;;;;;;;6.80;4.40;;;;;;;31.71;28.44;98614.05;137528;1273;22502;-78
2023/06/26 14:06:10;;;;;;;;;;;;;;;31.74;28.31;98609.84;137517;1273;22724;-84
2023/06/26 14:09:13;;;;;;;4.80;4.10;;;;;;;31.79;28.37;98607.09;137177;1273;22240;-84